sensor_id;sensor_type;location;lat;lon;timestamp;P1;P2;P0
74880;PMS5003;63427;49.654;6.596;2023-02-24T00:00:43;29;28;
74880;PMS5003;63427;49.654;6.596;2023-02-24T00:03:08;31;30;
74880;PMS5003;63427;49.654;6.596;2023-02-24T00:05:34;28;26;
74880;PMS5003;63427;49.654;6.596;2023-02-24T00:07:59;29;27;
74880;PMS5003;63427;49.654;6.596;2023-02-24T00:10:25;32;30;
74880;PMS5003;63427;49.654;6.596;2023-02-24T00:12:50;36;35;
74880;PMS5003;63427;49.654;6.596;2023-02-24T00:15:16;35;30;
74880;PMS5003;63427;49.654;6.596;2023-02-24T00:17:41;29;28;
74880;PMS5003;63427;49.654;6.596;2023-02-24T00:20:06;32;31;
74880;PMS5003;63427;49.654;6.596;2023-02-24T00:22:31;33;32;
74880;PMS5003;63427;49.654;6.596;2023-02-24T00:24:57;38;34;
74880;PMS5003;63427;49.654;6.596;2023-02-24T00:27:23;37;35;
74880;PMS5003;63427;49.654;6.596;2023-02-24T00:29:48;31;30;
74880;PMS5003;63427;49.654;6.596;2023-02-24T00:32:14;28;27;
74880;PMS5003;63427;49.654;6.596;2023-02-24T00:34:40;32;29;
74880;PMS5003;63427;49.654;6.596;2023-02-24T00:37:04;23;22;
74880;PMS5003;63427;49.654;6.596;2023-02-24T00:39:30;36;34;
74880;PMS5003;63427;49.654;6.596;2023-02-24T00:41:56;33;31;
74880;PMS5003;63427;49.654;6.596;2023-02-24T00:44:21;33;32;
74880;PMS5003;63427;49.654;6.596;2023-02-24T00:46:47;32;32;
74880;PMS5003;63427;49.654;6.596;2023-02-24T00:49:14;29;28;
74880;PMS5003;63427;49.654;6.596;2023-02-24T00:51:39;31;29;
74880;PMS5003;63427;49.654;6.596;2023-02-24T00:54:03;33;31;
74880;PMS5003;63427;49.654;6.596;2023-02-24T00:56:29;30;28;
74880;PMS5003;63427;49.654;6.596;2023-02-24T00:58:55;34;32;
74880;PMS5003;63427;49.654;6.596;2023-02-24T01:01:20;28;28;
74880;PMS5003;63427;49.654;6.596;2023-02-24T01:03:45;28;28;
74880;PMS5003;63427;49.654;6.596;2023-02-24T01:06:11;30;28;
74880;PMS5003;63427;49.654;6.596;2023-02-24T01:08:35;32;31;
74880;PMS5003;63427;49.654;6.596;2023-02-24T01:11:01;29;27;
74880;PMS5003;63427;49.654;6.596;2023-02-24T01:13:26;36;34;
74880;PMS5003;63427;49.654;6.596;2023-02-24T01:15:51;26;24;
74880;PMS5003;63427;49.654;6.596;2023-02-24T01:18:16;23;22;
74880;PMS5003;63427;49.654;6.596;2023-02-24T01:20:41;33;31;
74880;PMS5003;63427;49.654;6.596;2023-02-24T01:23:06;37;33;
74880;PMS5003;63427;49.654;6.596;2023-02-24T01:25:31;30;30;
74880;PMS5003;63427;49.654;6.596;2023-02-24T01:27:56;31;30;
74880;PMS5003;63427;49.654;6.596;2023-02-24T01:30:22;28;27;
74880;PMS5003;63427;49.654;6.596;2023-02-24T01:32:48;30;26;
74880;PMS5003;63427;49.654;6.596;2023-02-24T01:35:14;29;26;
74880;PMS5003;63427;49.654;6.596;2023-02-24T01:37:39;28;27;
74880;PMS5003;63427;49.654;6.596;2023-02-24T01:40:04;26;25;
74880;PMS5003;63427;49.654;6.596;2023-02-24T01:42:29;24;23;
74880;PMS5003;63427;49.654;6.596;2023-02-24T01:45:03;30;28;
74880;PMS5003;63427;49.654;6.596;2023-02-24T01:47:20;28;25;
74880;PMS5003;63427;49.654;6.596;2023-02-24T01:49:46;37;32;
74880;PMS5003;63427;49.654;6.596;2023-02-24T01:52:12;33;31;
74880;PMS5003;63427;49.654;6.596;2023-02-24T01:54:37;33;31;
74880;PMS5003;63427;49.654;6.596;2023-02-24T01:57:02;37;35;
74880;PMS5003;63427;49.654;6.596;2023-02-24T01:59:27;35;33;
74880;PMS5003;63427;49.654;6.596;2023-02-24T02:01:53;30;30;
74880;PMS5003;63427;49.654;6.596;2023-02-24T02:04:19;31;29;
74880;PMS5003;63427;49.654;6.596;2023-02-24T02:06:44;24;23;
74880;PMS5003;63427;49.654;6.596;2023-02-24T02:09:09;27;26;
74880;PMS5003;63427;49.654;6.596;2023-02-24T02:11:34;28;27;
74880;PMS5003;63427;49.654;6.596;2023-02-24T02:14:00;41;39;
74880;PMS5003;63427;49.654;6.596;2023-02-24T02:16:31;42;39;
74880;PMS5003;63427;49.654;6.596;2023-02-24T02:18:53;43;38;
74880;PMS5003;63427;49.654;6.596;2023-02-24T02:23:46;34;29;
74880;PMS5003;63427;49.654;6.596;2023-02-24T02:26:13;33;31;
74880;PMS5003;63427;49.654;6.596;2023-02-24T02:28:35;38;38;
74880;PMS5003;63427;49.654;6.596;2023-02-24T02:33:28;37;34;
74880;PMS5003;63427;49.654;6.596;2023-02-24T02:35:50;40;39;
74880;PMS5003;63427;49.654;6.596;2023-02-24T02:38:17;40;39;
74880;PMS5003;63427;49.654;6.596;2023-02-24T02:40:41;36;35;
74880;PMS5003;63427;49.654;6.596;2023-02-24T02:43:07;36;32;
74880;PMS5003;63427;49.654;6.596;2023-02-24T02:45:32;35;33;
74880;PMS5003;63427;49.654;6.596;2023-02-24T02:47:57;33;31;
74880;PMS5003;63427;49.654;6.596;2023-02-24T02:50:22;38;36;
74880;PMS5003;63427;49.654;6.596;2023-02-24T02:52:47;33;29;
74880;PMS5003;63427;49.654;6.596;2023-02-24T02:55:13;36;36;
74880;PMS5003;63427;49.654;6.596;2023-02-24T02:57:37;36;33;
74880;PMS5003;63427;49.654;6.596;2023-02-24T03:00:03;30;28;
74880;PMS5003;63427;49.654;6.596;2023-02-24T03:02:28;33;32;
74880;PMS5003;63427;49.654;6.596;2023-02-24T03:04:53;34;31;
74880;PMS5003;63427;49.654;6.596;2023-02-24T03:07:18;37;31;
74880;PMS5003;63427;49.654;6.596;2023-02-24T03:09:43;38;34;
74880;PMS5003;63427;49.654;6.596;2023-02-24T03:12:09;36;35;
74880;PMS5003;63427;49.654;6.596;2023-02-24T03:14:36;35;32;
74880;PMS5003;63427;49.654;6.596;2023-02-24T03:17:00;28;27;
74880;PMS5003;63427;49.654;6.596;2023-02-24T03:19:26;36;35;
74880;PMS5003;63427;49.654;6.596;2023-02-24T03:21:54;34;31;
74880;PMS5003;63427;49.654;6.596;2023-02-24T03:24:16;34;31;
74880;PMS5003;63427;49.654;6.596;2023-02-24T03:26:45;30;28;
74880;PMS5003;63427;49.654;6.596;2023-02-24T03:29:08;38;37;
74880;PMS5003;63427;49.654;6.596;2023-02-24T03:31:35;37;34;
74880;PMS5003;63427;49.654;6.596;2023-02-24T03:34:00;35;33;
74880;PMS5003;63427;49.654;6.596;2023-02-24T03:36:24;36;35;
74880;PMS5003;63427;49.654;6.596;2023-02-24T03:38:49;32;30;
74880;PMS5003;63427;49.654;6.596;2023-02-24T03:41:15;29;26;
74880;PMS5003;63427;49.654;6.596;2023-02-24T03:43:42;33;30;
74880;PMS5003;63427;49.654;6.596;2023-02-24T03:46:06;37;35;
74880;PMS5003;63427;49.654;6.596;2023-02-24T03:48:32;35;34;
74880;PMS5003;63427;49.654;6.596;2023-02-24T03:50:57;31;28;
74880;PMS5003;63427;49.654;6.596;2023-02-24T03:53:26;31;29;
74880;PMS5003;63427;49.654;6.596;2023-02-24T03:55:51;25;24;
74880;PMS5003;63427;49.654;6.596;2023-02-24T03:58:16;36;36;
74880;PMS5003;63427;49.654;6.596;2023-02-24T04:00:40;35;34;
74880;PMS5003;63427;49.654;6.596;2023-02-24T04:03:11;31;29;
74880;PMS5003;63427;49.654;6.596;2023-02-24T04:05:29;38;35;
74880;PMS5003;63427;49.654;6.596;2023-02-24T04:07:56;35;33;
74880;PMS5003;63427;49.654;6.596;2023-02-24T04:10:21;35;30;
74880;PMS5003;63427;49.654;6.596;2023-02-24T04:12:48;35;34;
74880;PMS5003;63427;49.654;6.596;2023-02-24T04:15:14;28;28;
74880;PMS5003;63427;49.654;6.596;2023-02-24T04:17:38;35;32;
74880;PMS5003;63427;49.654;6.596;2023-02-24T04:20:04;26;25;
74880;PMS5003;63427;49.654;6.596;2023-02-24T04:22:29;32;30;
74880;PMS5003;63427;49.654;6.596;2023-02-24T04:24:55;29;27;
74880;PMS5003;63427;49.654;6.596;2023-02-24T04:27:21;34;32;
74880;PMS5003;63427;49.654;6.596;2023-02-24T04:29:47;37;33;
74880;PMS5003;63427;49.654;6.596;2023-02-24T04:32:12;26;25;
74880;PMS5003;63427;49.654;6.596;2023-02-24T04:34:37;31;29;
74880;PMS5003;63427;49.654;6.596;2023-02-24T04:37:02;32;31;
74880;PMS5003;63427;49.654;6.596;2023-02-24T04:39:28;35;35;
74880;PMS5003;63427;49.654;6.596;2023-02-24T04:41:53;28;27;
74880;PMS5003;63427;49.654;6.596;2023-02-24T04:44:19;28;27;
74880;PMS5003;63427;49.654;6.596;2023-02-24T04:46:44;34;32;
74880;PMS5003;63427;49.654;6.596;2023-02-24T04:49:10;27;26;
74880;PMS5003;63427;49.654;6.596;2023-02-24T04:51:35;29;29;
74880;PMS5003;63427;49.654;6.596;2023-02-24T04:54:01;33;31;
74880;PMS5003;63427;49.654;6.596;2023-02-24T04:56:27;34;29;
74880;PMS5003;63427;49.654;6.596;2023-02-24T04:58:51;32;31;
74880;PMS5003;63427;49.654;6.596;2023-02-24T05:01:16;27;26;
74880;PMS5003;63427;49.654;6.596;2023-02-24T05:03:42;26;25;
74880;PMS5003;63427;49.654;6.596;2023-02-24T05:06:12;30;30;
74880;PMS5003;63427;49.654;6.596;2023-02-24T05:08:33;28;27;
74880;PMS5003;63427;49.654;6.596;2023-02-24T05:10:58;29;28;
74880;PMS5003;63427;49.654;6.596;2023-02-24T05:13:24;31;30;
74880;PMS5003;63427;49.654;6.596;2023-02-24T05:15:49;32;32;
74880;PMS5003;63427;49.654;6.596;2023-02-24T05:18:15;22;22;
74880;PMS5003;63427;49.654;6.596;2023-02-24T05:20:41;32;30;
74880;PMS5003;63427;49.654;6.596;2023-02-24T05:23:06;28;26;
74880;PMS5003;63427;49.654;6.596;2023-02-24T05:25:31;35;34;
74880;PMS5003;63427;49.654;6.596;2023-02-24T05:27:56;29;28;
74880;PMS5003;63427;49.654;6.596;2023-02-24T05:30:22;34;32;
74880;PMS5003;63427;49.654;6.596;2023-02-24T05:32:48;28;26;
74880;PMS5003;63427;49.654;6.596;2023-02-24T05:35:13;30;30;
74880;PMS5003;63427;49.654;6.596;2023-02-24T05:37:39;28;27;
74880;PMS5003;63427;49.654;6.596;2023-02-24T05:40:04;38;37;
74880;PMS5003;63427;49.654;6.596;2023-02-24T05:42:29;25;24;
74880;PMS5003;63427;49.654;6.596;2023-02-24T05:44:55;28;26;
74880;PMS5003;63427;49.654;6.596;2023-02-24T05:47:20;39;34;
74880;PMS5003;63427;49.654;6.596;2023-02-24T05:49:46;34;32;
74880;PMS5003;63427;49.654;6.596;2023-02-24T05:52:11;32;32;
74880;PMS5003;63427;49.654;6.596;2023-02-24T05:54:37;36;35;
74880;PMS5003;63427;49.654;6.596;2023-02-24T05:57:02;36;34;
74880;PMS5003;63427;49.654;6.596;2023-02-24T05:59:27;32;31;
74880;PMS5003;63427;49.654;6.596;2023-02-24T06:01:52;37;35;
74880;PMS5003;63427;49.654;6.596;2023-02-24T06:04:18;37;36;
74880;PMS5003;63427;49.654;6.596;2023-02-24T06:06:43;27;27;
74880;PMS5003;63427;49.654;6.596;2023-02-24T06:09:09;30;27;
74880;PMS5003;63427;49.654;6.596;2023-02-24T06:11:34;31;29;
74880;PMS5003;63427;49.654;6.596;2023-02-24T06:13:59;29;29;
74880;PMS5003;63427;49.654;6.596;2023-02-24T06:16:24;30;29;
74880;PMS5003;63427;49.654;6.596;2023-02-24T06:18:50;31;30;
74880;PMS5003;63427;49.654;6.596;2023-02-24T06:21:16;26;25;
74880;PMS5003;63427;49.654;6.596;2023-02-24T06:23:41;31;30;
74880;PMS5003;63427;49.654;6.596;2023-02-24T06:26:07;32;31;
74880;PMS5003;63427;49.654;6.596;2023-02-24T06:28:32;29;27;
74880;PMS5003;63427;49.654;6.596;2023-02-24T06:31:01;27;26;
74880;PMS5003;63427;49.654;6.596;2023-02-24T06:33:24;32;29;
74880;PMS5003;63427;49.654;6.596;2023-02-24T06:35:49;34;32;
74880;PMS5003;63427;49.654;6.596;2023-02-24T06:38:15;32;30;
74880;PMS5003;63427;49.654;6.596;2023-02-24T06:40:40;31;30;
74880;PMS5003;63427;49.654;6.596;2023-02-24T06:43:05;34;33;
74880;PMS5003;63427;49.654;6.596;2023-02-24T06:45:31;29;29;
74880;PMS5003;63427;49.654;6.596;2023-02-24T06:47:56;31;29;
74880;PMS5003;63427;49.654;6.596;2023-02-24T06:50:21;28;28;
74880;PMS5003;63427;49.654;6.596;2023-02-24T06:52:47;31;30;
74880;PMS5003;63427;49.654;6.596;2023-02-24T06:55:12;26;25;
74880;PMS5003;63427;49.654;6.596;2023-02-24T06:57:38;31;27;
74880;PMS5003;63427;49.654;6.596;2023-02-24T07:00:03;31;29;
74880;PMS5003;63427;49.654;6.596;2023-02-24T07:02:28;34;33;
74880;PMS5003;63427;49.654;6.596;2023-02-24T07:04:53;32;29;
74880;PMS5003;63427;49.654;6.596;2023-02-24T07:07:19;28;27;
74880;PMS5003;63427;49.654;6.596;2023-02-24T07:09:44;30;28;
74880;PMS5003;63427;49.654;6.596;2023-02-24T07:12:10;32;30;
74880;PMS5003;63427;49.654;6.596;2023-02-24T07:14:35;27;24;
74880;PMS5003;63427;49.654;6.596;2023-02-24T07:17:01;31;30;
74880;PMS5003;63427;49.654;6.596;2023-02-24T07:19:26;32;30;
74880;PMS5003;63427;49.654;6.596;2023-02-24T07:21:54;37;33;
74880;PMS5003;63427;49.654;6.596;2023-02-24T07:24:18;37;34;
74880;PMS5003;63427;49.654;6.596;2023-02-24T07:26:43;35;32;
74880;PMS5003;63427;49.654;6.596;2023-02-24T07:29:09;40;39;
74880;PMS5003;63427;49.654;6.596;2023-02-24T07:31:34;35;34;
74880;PMS5003;63427;49.654;6.596;2023-02-24T07:33:59;32;30;
74880;PMS5003;63427;49.654;6.596;2023-02-24T07:36:24;27;25;
74880;PMS5003;63427;49.654;6.596;2023-02-24T07:38:50;34;31;
74880;PMS5003;63427;49.654;6.596;2023-02-24T07:41:15;31;29;
74880;PMS5003;63427;49.654;6.596;2023-02-24T07:43:40;26;26;
74880;PMS5003;63427;49.654;6.596;2023-02-24T07:46:06;26;26;
74880;PMS5003;63427;49.654;6.596;2023-02-24T07:48:31;28;27;
74880;PMS5003;63427;49.654;6.596;2023-02-24T07:50:57;32;31;
74880;PMS5003;63427;49.654;6.596;2023-02-24T07:53:23;30;29;
74880;PMS5003;63427;49.654;6.596;2023-02-24T07:55:48;38;37;
74880;PMS5003;63427;49.654;6.596;2023-02-24T07:58:13;41;40;
74880;PMS5003;63427;49.654;6.596;2023-02-24T08:00:39;27;23;
74880;PMS5003;63427;49.654;6.596;2023-02-24T08:03:05;35;34;
74880;PMS5003;63427;49.654;6.596;2023-02-24T08:05:30;30;29;
74880;PMS5003;63427;49.654;6.596;2023-02-24T08:07:56;39;36;
74880;PMS5003;63427;49.654;6.596;2023-02-24T08:10:22;53;51;
74880;PMS5003;63427;49.654;6.596;2023-02-24T08:12:48;48;44;
74880;PMS5003;63427;49.654;6.596;2023-02-24T08:15:13;43;40;
74880;PMS5003;63427;49.654;6.596;2023-02-24T08:17:39;34;32;
74880;PMS5003;63427;49.654;6.596;2023-02-24T08:20:04;40;40;
74880;PMS5003;63427;49.654;6.596;2023-02-24T08:22:30;38;37;
74880;PMS5003;63427;49.654;6.596;2023-02-24T08:24:55;42;39;
74880;PMS5003;63427;49.654;6.596;2023-02-24T08:27:21;38;38;
74880;PMS5003;63427;49.654;6.596;2023-02-24T08:29:46;39;37;
74880;PMS5003;63427;49.654;6.596;2023-02-24T08:32:11;40;35;
74880;PMS5003;63427;49.654;6.596;2023-02-24T08:34:36;40;38;
74880;PMS5003;63427;49.654;6.596;2023-02-24T08:37:01;36;34;
74880;PMS5003;63427;49.654;6.596;2023-02-24T08:39:26;31;30;
74880;PMS5003;63427;49.654;6.596;2023-02-24T08:41:52;34;34;
74880;PMS5003;63427;49.654;6.596;2023-02-24T08:44:17;36;36;
74880;PMS5003;63427;49.654;6.596;2023-02-24T08:46:43;26;25;
74880;PMS5003;63427;49.654;6.596;2023-02-24T08:49:08;29;27;
74880;PMS5003;63427;49.654;6.596;2023-02-24T08:51:35;32;30;
74880;PMS5003;63427;49.654;6.596;2023-02-24T08:54:00;39;37;
74880;PMS5003;63427;49.654;6.596;2023-02-24T08:56:26;38;38;
74880;PMS5003;63427;49.654;6.596;2023-02-24T08:58:52;39;35;
74880;PMS5003;63427;49.654;6.596;2023-02-24T09:01:18;36;35;
74880;PMS5003;63427;49.654;6.596;2023-02-24T09:03:43;34;32;
74880;PMS5003;63427;49.654;6.596;2023-02-24T09:06:08;42;40;
74880;PMS5003;63427;49.654;6.596;2023-02-24T09:08:34;37;37;
74880;PMS5003;63427;49.654;6.596;2023-02-24T09:11:00;32;31;
74880;PMS5003;63427;49.654;6.596;2023-02-24T09:13:25;28;28;
74880;PMS5003;63427;49.654;6.596;2023-02-24T09:15:50;44;40;
74880;PMS5003;63427;49.654;6.596;2023-02-24T09:18:16;36;34;
74880;PMS5003;63427;49.654;6.596;2023-02-24T09:20:41;37;33;
74880;PMS5003;63427;49.654;6.596;2023-02-24T09:23:07;34;33;
74880;PMS5003;63427;49.654;6.596;2023-02-24T09:25:32;36;34;
74880;PMS5003;63427;49.654;6.596;2023-02-24T09:30:24;35;33;
74880;PMS5003;63427;49.654;6.596;2023-02-24T09:32:48;30;28;
74880;PMS5003;63427;49.654;6.596;2023-02-24T09:35:13;38;37;
74880;PMS5003;63427;49.654;6.596;2023-02-24T09:37:38;30;29;
74880;PMS5003;63427;49.654;6.596;2023-02-24T09:40:04;28;27;
74880;PMS5003;63427;49.654;6.596;2023-02-24T09:42:30;30;28;
74880;PMS5003;63427;49.654;6.596;2023-02-24T09:44:55;28;28;
74880;PMS5003;63427;49.654;6.596;2023-02-24T09:47:21;29;25;
74880;PMS5003;63427;49.654;6.596;2023-02-24T09:49:47;34;33;
74880;PMS5003;63427;49.654;6.596;2023-02-24T09:52:11;28;27;
74880;PMS5003;63427;49.654;6.596;2023-02-24T09:54:36;37;34;
74880;PMS5003;63427;49.654;6.596;2023-02-24T09:57:03;37;35;
74880;PMS5003;63427;49.654;6.596;2023-02-24T09:59:29;27;27;
74880;PMS5003;63427;49.654;6.596;2023-02-24T10:01:55;31;30;
74880;PMS5003;63427;49.654;6.596;2023-02-24T10:04:22;31;28;
74880;PMS5003;63427;49.654;6.596;2023-02-24T10:06:45;32;30;
74880;PMS5003;63427;49.654;6.596;2023-02-24T10:09:13;28;27;
74880;PMS5003;63427;49.654;6.596;2023-02-24T10:11:36;31;29;
74880;PMS5003;63427;49.654;6.596;2023-02-24T10:14:02;22;20;
74880;PMS5003;63427;49.654;6.596;2023-02-24T10:16:26;30;29;
74880;PMS5003;63427;49.654;6.596;2023-02-24T10:18:52;27;26;
74880;PMS5003;63427;49.654;6.596;2023-02-24T10:21:20;22;21;
74880;PMS5003;63427;49.654;6.596;2023-02-24T10:23:47;30;27;
74880;PMS5003;63427;49.654;6.596;2023-02-24T10:26:09;28;27;
74880;PMS5003;63427;49.654;6.596;2023-02-24T10:28:35;27;24;
74880;PMS5003;63427;49.654;6.596;2023-02-24T10:31:00;28;28;
74880;PMS5003;63427;49.654;6.596;2023-02-24T10:33:27;28;27;
74880;PMS5003;63427;49.654;6.596;2023-02-24T10:35:50;28;27;
74880;PMS5003;63427;49.654;6.596;2023-02-24T10:38:15;30;29;
74880;PMS5003;63427;49.654;6.596;2023-02-24T10:40:45;27;27;
74880;PMS5003;63427;49.654;6.596;2023-02-24T10:43:06;27;26;
74880;PMS5003;63427;49.654;6.596;2023-02-24T10:45:36;28;26;
74880;PMS5003;63427;49.654;6.596;2023-02-24T10:47:58;31;28;
74880;PMS5003;63427;49.654;6.596;2023-02-24T10:50:23;24;24;
74880;PMS5003;63427;49.654;6.596;2023-02-24T10:52:48;27;27;
74880;PMS5003;63427;49.654;6.596;2023-02-24T10:55:15;23;23;
74880;PMS5003;63427;49.654;6.596;2023-02-24T10:57:41;25;24;
74880;PMS5003;63427;49.654;6.596;2023-02-24T11:00:06;21;19;
74880;PMS5003;63427;49.654;6.596;2023-02-24T11:04:57;27;26;
74880;PMS5003;63427;49.654;6.596;2023-02-24T11:07:22;21;20;
74880;PMS5003;63427;49.654;6.596;2023-02-24T11:09:47;29;27;
74880;PMS5003;63427;49.654;6.596;2023-02-24T11:12:13;24;24;
74880;PMS5003;63427;49.654;6.596;2023-02-24T11:14:46;23;23;
74880;PMS5003;63427;49.654;6.596;2023-02-24T11:17:04;19;18;
74880;PMS5003;63427;49.654;6.596;2023-02-24T11:19:29;17;17;
74880;PMS5003;63427;49.654;6.596;2023-02-24T11:21:55;19;18;
74880;PMS5003;63427;49.654;6.596;2023-02-24T11:24:21;15;14;
74880;PMS5003;63427;49.654;6.596;2023-02-24T11:26:47;14;14;
74880;PMS5003;63427;49.654;6.596;2023-02-24T11:29:19;13;13;
74880;PMS5003;63427;49.654;6.596;2023-02-24T11:31:43;15;15;
74880;PMS5003;63427;49.654;6.596;2023-02-24T11:34:04;15;15;
74880;PMS5003;63427;49.654;6.596;2023-02-24T11:36:31;16;16;
74880;PMS5003;63427;49.654;6.596;2023-02-24T11:38:58;14;14;
74880;PMS5003;63427;49.654;6.596;2023-02-24T11:41:22;15;14;
74880;PMS5003;63427;49.654;6.596;2023-02-24T11:43:48;13;13;
74880;PMS5003;63427;49.654;6.596;2023-02-24T11:46:13;13;13;
74880;PMS5003;63427;49.654;6.596;2023-02-24T11:48:38;18;18;
74880;PMS5003;63427;49.654;6.596;2023-02-24T11:51:04;13;13;
74880;PMS5003;63427;49.654;6.596;2023-02-24T11:53:30;13;12;
74880;PMS5003;63427;49.654;6.596;2023-02-24T11:55:56;14;14;
74880;PMS5003;63427;49.654;6.596;2023-02-24T11:58:22;13;12;
74880;PMS5003;63427;49.654;6.596;2023-02-24T12:00:47;14;13;
74880;PMS5003;63427;49.654;6.596;2023-02-24T12:03:12;13;12;
74880;PMS5003;63427;49.654;6.596;2023-02-24T12:05:37;12;12;
74880;PMS5003;63427;49.654;6.596;2023-02-24T12:08:02;15;14;
74880;PMS5003;63427;49.654;6.596;2023-02-24T12:10:28;14;14;
74880;PMS5003;63427;49.654;6.596;2023-02-24T12:12:53;18;17;
74880;PMS5003;63427;49.654;6.596;2023-02-24T12:15:21;17;17;
74880;PMS5003;63427;49.654;6.596;2023-02-24T12:17:47;15;13;
74880;PMS5003;63427;49.654;6.596;2023-02-24T12:20:14;14;14;
74880;PMS5003;63427;49.654;6.596;2023-02-24T12:22:36;15;15;
74880;PMS5003;63427;49.654;6.596;2023-02-24T12:25:00;17;17;
74880;PMS5003;63427;49.654;6.596;2023-02-24T12:27:30;16;15;
74880;PMS5003;63427;49.654;6.596;2023-02-24T12:30:01;17;16;
74880;PMS5003;63427;49.654;6.596;2023-02-24T12:32:18;17;15;
74880;PMS5003;63427;49.654;6.596;2023-02-24T12:34:44;13;13;
74880;PMS5003;63427;49.654;6.596;2023-02-24T12:37:14;14;14;
74880;PMS5003;63427;49.654;6.596;2023-02-24T12:39:34;14;14;
74880;PMS5003;63427;49.654;6.596;2023-02-24T12:42:02;11;11;
74880;PMS5003;63427;49.654;6.596;2023-02-24T12:44:28;21;18;
74880;PMS5003;63427;49.654;6.596;2023-02-24T12:46:52;14;14;
74880;PMS5003;63427;49.654;6.596;2023-02-24T12:49:20;16;16;
74880;PMS5003;63427;49.654;6.596;2023-02-24T12:51:44;18;17;
74880;PMS5003;63427;49.654;6.596;2023-02-24T12:54:08;17;17;
74880;PMS5003;63427;49.654;6.596;2023-02-24T12:56:34;13;12;
74880;PMS5003;63427;49.654;6.596;2023-02-24T12:58:58;16;16;
74880;PMS5003;63427;49.654;6.596;2023-02-24T13:01:23;16;13;
74880;PMS5003;63427;49.654;6.596;2023-02-24T13:03:53;17;16;
74880;PMS5003;63427;49.654;6.596;2023-02-24T13:06:16;17;17;
74880;PMS5003;63427;49.654;6.596;2023-02-24T13:08:43;16;16;
74880;PMS5003;63427;49.654;6.596;2023-02-24T13:11:06;22;21;
74880;PMS5003;63427;49.654;6.596;2023-02-24T13:13:33;17;16;
74880;PMS5003;63427;49.654;6.596;2023-02-24T13:15:57;21;20;
74880;PMS5003;63427;49.654;6.596;2023-02-24T13:18:22;17;15;
74880;PMS5003;63427;49.654;6.596;2023-02-24T13:20:46;15;15;
74880;PMS5003;63427;49.654;6.596;2023-02-24T13:23:17;17;17;
74880;PMS5003;63427;49.654;6.596;2023-02-24T13:25:38;18;18;
74880;PMS5003;63427;49.654;6.596;2023-02-24T13:28:04;15;13;
74880;PMS5003;63427;49.654;6.596;2023-02-24T13:30:33;14;14;
74880;PMS5003;63427;49.654;6.596;2023-02-24T13:32:58;17;16;
74880;PMS5003;63427;49.654;6.596;2023-02-24T13:37:45;14;13;
74880;PMS5003;63427;49.654;6.596;2023-02-24T13:42:35;13;11;
74880;PMS5003;63427;49.654;6.596;2023-02-24T13:45:03;14;14;
74880;PMS5003;63427;49.654;6.596;2023-02-24T13:47:32;10;10;
74880;PMS5003;63427;49.654;6.596;2023-02-24T13:49:53;12;12;
74880;PMS5003;63427;49.654;6.596;2023-02-24T13:52:18;9;8;
74880;PMS5003;63427;49.654;6.596;2023-02-24T13:54:47;9;9;
74880;PMS5003;63427;49.654;6.596;2023-02-24T13:57:09;10;10;
74880;PMS5003;63427;49.654;6.596;2023-02-24T13:59:35;10;9;
74880;PMS5003;63427;49.654;6.596;2023-02-24T14:01:58;10;9;
74880;PMS5003;63427;49.654;6.596;2023-02-24T14:04:24;9;9;
74880;PMS5003;63427;49.654;6.596;2023-02-24T14:06:49;8;6;
74880;PMS5003;63427;49.654;6.596;2023-02-24T14:09:15;9;9;
74880;PMS5003;63427;49.654;6.596;2023-02-24T14:11:39;10;10;
74880;PMS5003;63427;49.654;6.596;2023-02-24T14:14:04;8;7;
74880;PMS5003;63427;49.654;6.596;2023-02-24T14:16:31;13;12;
74880;PMS5003;63427;49.654;6.596;2023-02-24T14:18:56;9;8;
74880;PMS5003;63427;49.654;6.596;2023-02-24T14:21:21;11;10;
74880;PMS5003;63427;49.654;6.596;2023-02-24T14:26:12;7;7;
74880;PMS5003;63427;49.654;6.596;2023-02-24T14:28:37;7;7;
74880;PMS5003;63427;49.654;6.596;2023-02-24T14:31:03;9;7;
74880;PMS5003;63427;49.654;6.596;2023-02-24T14:33:29;9;9;
74880;PMS5003;63427;49.654;6.596;2023-02-24T14:35:52;8;8;
74880;PMS5003;63427;49.654;6.596;2023-02-24T14:38:29;8;8;
74880;PMS5003;63427;49.654;6.596;2023-02-24T14:40:46;7;7;
74880;PMS5003;63427;49.654;6.596;2023-02-24T14:43:12;9;9;
74880;PMS5003;63427;49.654;6.596;2023-02-24T14:45:34;8;7;
74880;PMS5003;63427;49.654;6.596;2023-02-24T14:47:59;10;9;
74880;PMS5003;63427;49.654;6.596;2023-02-24T14:50:26;7;7;
74880;PMS5003;63427;49.654;6.596;2023-02-24T14:52:50;7;7;
74880;PMS5003;63427;49.654;6.596;2023-02-24T14:55:16;9;9;
74880;PMS5003;63427;49.654;6.596;2023-02-24T14:57:41;11;11;
74880;PMS5003;63427;49.654;6.596;2023-02-24T15:00:07;9;9;
74880;PMS5003;63427;49.654;6.596;2023-02-24T15:02:32;11;10;
74880;PMS5003;63427;49.654;6.596;2023-02-24T15:04:57;9;8;
74880;PMS5003;63427;49.654;6.596;2023-02-24T15:07:24;10;9;
74880;PMS5003;63427;49.654;6.596;2023-02-24T15:09:48;9;9;
74880;PMS5003;63427;49.654;6.596;2023-02-24T15:12:18;8;8;
74880;PMS5003;63427;49.654;6.596;2023-02-24T15:14:39;11;11;
74880;PMS5003;63427;49.654;6.596;2023-02-24T15:17:07;8;7;
74880;PMS5003;63427;49.654;6.596;2023-02-24T15:19:31;7;6;
74880;PMS5003;63427;49.654;6.596;2023-02-24T15:21:56;13;13;
74880;PMS5003;63427;49.654;6.596;2023-02-24T15:24:23;8;7;
74880;PMS5003;63427;49.654;6.596;2023-02-24T15:26:50;8;8;
74880;PMS5003;63427;49.654;6.596;2023-02-24T15:29:13;7;7;
74880;PMS5003;63427;49.654;6.596;2023-02-24T15:31:37;6;6;
74880;PMS5003;63427;49.654;6.596;2023-02-24T15:34:03;9;9;
74880;PMS5003;63427;49.654;6.596;2023-02-24T15:36:30;10;9;
74880;PMS5003;63427;49.654;6.596;2023-02-24T15:38:55;7;7;
74880;PMS5003;63427;49.654;6.596;2023-02-24T15:41:19;5;3;
74880;PMS5003;63427;49.654;6.596;2023-02-24T15:43:45;13;13;
74880;PMS5003;63427;49.654;6.596;2023-02-24T15:46:14;8;8;
74880;PMS5003;63427;49.654;6.596;2023-02-24T15:48:35;9;8;
74880;PMS5003;63427;49.654;6.596;2023-02-24T15:51:01;6;6;
74880;PMS5003;63427;49.654;6.596;2023-02-24T15:53:25;8;6;
74880;PMS5003;63427;49.654;6.596;2023-02-24T15:55:51;9;8;
74880;PMS5003;63427;49.654;6.596;2023-02-24T15:58:17;7;7;
74880;PMS5003;63427;49.654;6.596;2023-02-24T16:00:41;4;4;
74880;PMS5003;63427;49.654;6.596;2023-02-24T16:03:07;5;5;
74880;PMS5003;63427;49.654;6.596;2023-02-24T16:05:32;5;5;
74880;PMS5003;63427;49.654;6.596;2023-02-24T16:07:57;5;5;
74880;PMS5003;63427;49.654;6.596;2023-02-24T16:10:23;8;7;
74880;PMS5003;63427;49.654;6.596;2023-02-24T16:12:48;6;6;
74880;PMS5003;63427;49.654;6.596;2023-02-24T16:15:16;8;8;
74880;PMS5003;63427;49.654;6.596;2023-02-24T16:17:39;4;4;
74880;PMS5003;63427;49.654;6.596;2023-02-24T16:20:04;5;5;
74880;PMS5003;63427;49.654;6.596;2023-02-24T16:22:29;6;6;
74880;PMS5003;63427;49.654;6.596;2023-02-24T16:24:54;3;3;